createdAt,value
2023-04-25T00:02:00.696Z,77.29
2023-04-25T00:04:28.780Z,75.86
2023-04-25T00:06:57.047Z,75.37
2023-04-25T00:09:24.885Z,75.31
2023-04-25T00:11:52.640Z,74.98
2023-04-25T00:14:20.552Z,74.88
2023-04-25T00:16:49.342Z,74.80
2023-04-25T00:19:17.160Z,74.62
2023-04-25T00:21:47.238Z,74.70
2023-04-25T00:24:15.442Z,74.99
2023-04-25T00:26:43.284Z,74.95
2023-04-25T00:29:11.248Z,75.32
2023-04-25T00:31:39.661Z,75.72
2023-04-25T00:34:09.275Z,75.36
2023-04-25T00:36:37.436Z,75.51
2023-04-25T00:39:05.596Z,75.42
2023-04-25T00:41:34.212Z,75.24
2023-04-25T00:44:04.305Z,75.33
2023-04-25T00:46:32.429Z,75.31
2023-04-25T00:49:00.238Z,75.83
2023-04-25T00:51:28.162Z,76.12
2023-04-25T00:53:56.036Z,76.39
2023-04-25T00:56:24.048Z,76.46
2023-04-25T00:58:57.385Z,76.75
2023-04-25T01:01:25.730Z,77.00
2023-04-25T01:03:55.253Z,77.41
2023-04-25T01:06:23.977Z,77.50
2023-04-25T01:08:52.847Z,77.77
2023-04-25T01:11:21.068Z,77.83
2023-04-25T01:13:49.238Z,77.87
2023-04-25T01:16:17.366Z,78.21
2023-04-25T01:18:46.590Z,78.02
2023-04-25T01:21:14.708Z,77.98
2023-04-25T01:23:43.419Z,78.08
2023-04-25T01:26:13.108Z,78.04
2023-04-25T01:28:44.529Z,78.40
2023-04-25T01:31:13.887Z,78.46
2023-04-25T01:33:41.743Z,78.67
2023-04-25T01:36:10.429Z,78.94
2023-04-25T01:38:38.360Z,79.11
2023-04-25T01:41:06.334Z,79.54
2023-04-25T01:43:34.665Z,79.93
2023-04-25T01:46:02.671Z,80.26
2023-04-25T01:48:30.576Z,80.52
2023-04-25T01:50:59.286Z,80.96
2023-04-25T01:53:27.458Z,81.08
2023-04-25T01:55:56.048Z,81.30
2023-04-25T01:58:25.998Z,81.55
2023-04-25T02:01:14.324Z,81.97
2023-04-25T02:03:45.913Z,82.51
2023-04-25T02:06:28.294Z,82.78
2023-04-25T02:08:58.535Z,83.41
2023-04-25T02:11:26.563Z,83.77
2023-04-25T02:14:06.076Z,83.80
2023-04-25T02:16:40.644Z,83.87
2023-04-25T02:19:09.066Z,84.33
2023-04-25T02:21:37.526Z,84.20
2023-04-25T02:24:06.416Z,84.53
2023-04-25T02:26:35.421Z,84.05
2023-04-25T02:29:03.345Z,83.81
2023-04-25T02:31:31.162Z,83.55
2023-04-25T02:33:59.629Z,83.72
2023-04-25T02:36:31.168Z,83.83
2023-04-25T02:38:58.987Z,83.76
2023-04-25T02:41:27.708Z,83.72
2023-04-25T02:43:56.852Z,83.61
2023-04-25T02:46:35.801Z,83.54
2023-04-25T02:49:07.714Z,83.82
2023-04-25T02:51:39.119Z,83.92
2023-04-25T02:54:07.588Z,83.99
2023-04-25T02:56:38.231Z,84.11
2023-04-25T02:59:14.743Z,84.20
2023-04-25T03:01:42.676Z,84.26
2023-04-25T03:04:10.564Z,84.32
2023-04-25T03:06:38.380Z,84.33
2023-04-25T03:09:06.413Z,84.42
2023-04-25T03:11:34.500Z,84.44
2023-04-25T03:14:02.504Z,84.56
2023-04-25T03:16:30.534Z,84.60
2023-04-25T03:18:58.346Z,84.60
2023-04-25T03:21:27.318Z,84.64
2023-04-25T03:23:55.280Z,84.84
2023-04-25T03:26:23.371Z,85.18
2023-04-25T03:28:51.384Z,85.27
2023-04-25T03:31:19.301Z,85.47
2023-04-25T03:33:47.363Z,85.53
2023-04-25T03:36:15.729Z,85.61
2023-04-25T03:38:43.844Z,85.53
2023-04-25T03:41:12.537Z,85.46
2023-04-25T03:43:44.308Z,85.64
2023-04-25T03:46:14.255Z,85.58
2023-04-25T03:48:43.327Z,85.74
2023-04-25T03:51:13.593Z,85.68
2023-04-25T03:53:44.534Z,85.60
2023-04-25T03:56:21.768Z,85.60
2023-04-25T03:58:54.530Z,85.39
2023-04-25T04:01:24.398Z,85.86
2023-04-25T04:03:52.860Z,85.71
2023-04-25T04:06:21.735Z,85.77
2023-04-25T04:08:53.558Z,85.97
2023-04-25T04:11:23.293Z,85.91
2023-04-25T04:13:54.114Z,86.05
2023-04-25T04:16:22.324Z,86.55
2023-04-25T04:18:50.576Z,86.17
2023-04-25T04:21:18.503Z,86.30
2023-04-25T04:23:47.596Z,86.01
2023-04-25T04:26:17.315Z,85.47
2023-04-25T04:29:09.510Z,85.95
2023-04-25T04:31:57.765Z,85.88
2023-04-25T04:34:26.734Z,85.62
2023-04-25T04:36:54.840Z,85.54
2023-04-25T04:39:23.331Z,85.55
2023-04-25T04:42:06.685Z,85.56
2023-04-25T04:44:53.274Z,84.82
2023-04-25T04:47:47.574Z,84.64
2023-04-25T04:50:34.890Z,84.51
2023-04-25T04:53:22.970Z,84.08
2023-04-25T04:56:09.634Z,83.77
2023-04-25T04:58:55.625Z,83.74
2023-04-25T05:01:39.843Z,83.79
2023-04-25T05:04:23.606Z,82.86
2023-04-25T05:07:06.541Z,81.96
2023-04-25T05:09:49.981Z,81.85
2023-04-25T05:12:41.121Z,81.20
2023-04-25T05:15:18.277Z,81.31
2023-04-25T05:18:05.095Z,80.21
2023-04-25T05:20:43.063Z,79.98
2023-04-25T05:23:37.335Z,80.93
2023-04-25T05:26:14.954Z,80.03
2023-04-25T05:29:02.681Z,79.55
2023-04-25T05:31:55.637Z,79.57
2023-04-25T05:34:23.645Z,79.44
2023-04-25T05:36:58.274Z,79.36
2023-04-25T05:39:27.126Z,78.37
2023-04-25T05:41:57.936Z,78.53
2023-04-25T05:44:48.352Z,78.43
2023-04-25T05:47:26.163Z,78.56
2023-04-25T05:50:04.415Z,78.15
2023-04-25T05:53:01.717Z,77.79
2023-04-25T05:55:36.575Z,78.33
2023-04-25T05:58:18.708Z,76.97
2023-04-25T06:00:47.153Z,76.84
2023-04-25T06:03:20.518Z,76.16
2023-04-25T06:05:49.327Z,75.55
2023-04-25T06:08:17.959Z,76.12
2023-04-25T06:10:45.721Z,76.00
2023-04-25T06:13:13.670Z,75.43
2023-04-25T06:15:41.859Z,74.86
2023-04-25T06:18:09.871Z,75.17
2023-04-25T06:20:37.818Z,74.30
2023-04-25T06:23:05.759Z,75.24
2023-04-25T06:25:52.189Z,74.20
2023-04-25T06:28:20.238Z,74.55
2023-04-25T06:30:48.022Z,74.52
2023-04-25T06:33:18.668Z,74.81
2023-04-25T06:35:47.071Z,74.33
2023-04-25T06:38:16.913Z,73.72
2023-04-25T06:40:47.329Z,73.17
2023-04-25T06:43:15.950Z,73.49
2023-04-25T06:45:55.215Z,73.28
2023-04-25T06:48:23.841Z,73.39
2023-04-25T06:50:52.137Z,72.11
2023-04-25T06:53:20.651Z,72.00
2023-04-25T06:55:51.355Z,72.56
2023-04-25T06:58:22.119Z,72.14
2023-04-25T07:01:16.517Z,72.46
2023-04-25T07:03:44.632Z,71.98
2023-04-25T07:06:16.616Z,72.13
2023-04-25T07:08:44.523Z,71.29
2023-04-25T07:11:12.477Z,70.88
2023-04-25T07:13:41.375Z,70.85
2023-04-25T07:16:09.482Z,70.47
2023-04-25T07:18:37.681Z,72.44
2023-04-25T07:21:05.851Z,70.68
2023-04-25T07:23:34.621Z,69.53
2023-04-25T07:26:05.321Z,71.85
2023-04-25T07:28:33.255Z,72.29
2023-04-25T07:31:01.208Z,69.48
2023-04-25T07:33:29.141Z,70.37
2023-04-25T07:35:57.626Z,69.05
2023-04-25T07:38:25.678Z,69.12
2023-04-25T07:40:53.537Z,68.46
2023-04-25T07:43:22.197Z,68.61
2023-04-25T07:45:59.220Z,68.75
2023-04-25T07:48:28.599Z,68.76
2023-04-25T07:50:57.823Z,67.53
2023-04-25T07:53:24.736Z,68.33
2023-04-25T07:55:55.687Z,68.24
2023-04-25T07:58:23.675Z,68.13
2023-04-25T08:01:02.848Z,67.33
2023-04-25T08:03:40.261Z,67.91
2023-04-25T08:06:13.011Z,67.56
2023-04-25T08:08:50.970Z,67.66
2023-04-25T08:11:20.961Z,68.51
2023-04-25T08:13:48.781Z,67.45
2023-04-25T08:16:17.623Z,66.24
2023-04-25T08:18:45.665Z,67.53
2023-04-25T08:21:14.237Z,66.48
2023-04-25T08:23:43.605Z,66.31
2023-04-25T08:26:15.899Z,64.68
2023-04-25T08:28:44.332Z,65.27
2023-04-25T08:31:12.210Z,63.45
2023-04-25T08:33:47.754Z,62.87
2023-04-25T08:36:38.452Z,62.37
2023-04-25T08:39:15.768Z,62.70
2023-04-25T08:41:53.641Z,63.35
2023-04-25T08:44:21.948Z,63.49
2023-04-25T08:46:51.110Z,63.73
2023-04-25T08:49:34.526Z,62.58
2023-04-25T08:52:07.344Z,62.94
2023-04-25T08:54:48.474Z,61.32
2023-04-25T08:57:16.607Z,62.02
2023-04-25T08:59:46.910Z,62.02
2023-04-25T09:02:17.677Z,61.98
2023-04-25T09:04:59.105Z,61.52
2023-04-25T09:07:41.383Z,60.92
2023-04-25T09:10:11.709Z,60.33
2023-04-25T09:12:40.366Z,60.69
2023-04-25T09:15:20.291Z,62.10
2023-04-25T09:18:05.771Z,61.90
2023-04-25T09:23:22.784Z,62.46
2023-04-25T09:25:54.594Z,63.16
2023-04-25T09:28:30.130Z,63.60
2023-04-25T09:30:59.693Z,61.13
2023-04-25T09:33:38.832Z,60.54
2023-04-25T09:36:14.373Z,61.18
2023-04-25T09:39:00.734Z,61.04
2023-04-25T09:41:30.749Z,61.18
2023-04-25T09:44:05.160Z,61.33
2023-04-25T09:46:39.188Z,60.85
2023-04-25T09:49:10.344Z,61.81
2023-04-25T09:51:58.730Z,61.69
2023-04-25T09:54:29.114Z,62.13
2023-04-25T09:57:17.400Z,62.18
2023-04-25T09:59:54.311Z,61.79
2023-04-25T10:02:26.462Z,60.18
2023-04-25T10:04:57.237Z,62.25
2023-04-25T10:07:39.040Z,63.22
2023-04-25T10:10:11.045Z,63.17
2023-04-25T10:12:41.363Z,60.57
2023-04-25T10:15:10.168Z,61.57
2023-04-25T10:17:38.098Z,60.13
2023-04-25T10:20:12.072Z,60.26
2023-04-25T10:22:46.024Z,61.08
2023-04-25T10:25:14.866Z,60.16
2023-04-25T10:27:42.736Z,60.05
2023-04-25T10:30:17.279Z,59.89
2023-04-25T10:32:46.504Z,59.90
2023-04-25T10:35:24.780Z,59.42
2023-04-25T10:38:01.536Z,59.35
2023-04-25T10:40:29.700Z,59.45
2023-04-25T10:43:32.863Z,59.59
2023-04-25T10:46:01.636Z,59.66
2023-04-25T10:48:31.538Z,59.79
2023-04-25T10:51:16.575Z,60.21
2023-04-25T10:54:09.593Z,60.29
2023-04-25T10:56:38.914Z,60.69
2023-04-25T10:59:17.685Z,60.74
2023-04-25T11:01:52.888Z,60.82
2023-04-25T11:04:35.059Z,59.82
2023-04-25T11:07:07.154Z,59.90
2023-04-25T11:09:40.077Z,59.69
2023-04-25T11:12:13.651Z,59.38
2023-04-25T11:14:45.295Z,57.71
2023-04-25T11:17:14.207Z,56.31
2023-04-25T11:19:43.100Z,56.41
2023-04-25T11:22:11.516Z,54.76
2023-04-25T11:24:39.434Z,52.40
2023-04-25T11:27:07.324Z,53.76
2023-04-25T11:29:36.289Z,55.16
2023-04-25T11:32:05.028Z,53.98
2023-04-25T11:34:34.349Z,54.67
2023-04-25T11:37:03.802Z,54.57
2023-04-25T11:39:31.776Z,55.21
2023-04-25T11:42:00.899Z,55.60
2023-04-25T11:44:30.800Z,55.65
2023-04-25T11:46:58.952Z,55.70
2023-04-25T11:49:32.688Z,55.76
2023-04-25T11:52:00.804Z,56.27
2023-04-25T11:54:28.733Z,56.86
2023-04-25T11:56:57.508Z,57.75
2023-04-25T11:59:26.960Z,58.16
2023-04-25T12:01:55.152Z,59.11
2023-04-25T12:04:25.800Z,60.50
2023-04-25T12:06:56.074Z,59.98
2023-04-25T12:09:34.769Z,61.89
2023-04-25T12:12:06.518Z,61.86
2023-04-25T12:14:36.578Z,61.74
2023-04-25T12:17:08.518Z,60.23
2023-04-25T12:19:41.212Z,59.75
2023-04-25T12:22:23.677Z,59.06
2023-04-25T12:24:52.353Z,58.94
2023-04-25T12:27:20.472Z,59.00
2023-04-25T12:29:54.502Z,59.22
2023-04-25T12:32:22.750Z,59.12
2023-04-25T12:34:50.842Z,58.81
2023-04-25T12:37:18.726Z,61.04
2023-04-25T12:39:47.003Z,60.84
2023-04-25T12:42:14.952Z,60.44
2023-04-25T12:44:43.028Z,59.79
2023-04-25T12:47:11.420Z,60.39
2023-04-25T12:49:39.366Z,59.21
2023-04-25T12:52:07.330Z,58.30
2023-04-25T12:54:35.253Z,58.14
2023-04-25T12:57:03.916Z,57.94
2023-04-25T12:59:32.314Z,56.66
2023-04-25T13:02:00.448Z,58.06
2023-04-25T13:04:28.702Z,57.30
2023-04-25T13:06:56.880Z,58.47
2023-04-25T13:09:24.800Z,58.08
2023-04-25T13:11:54.912Z,58.91
2023-04-25T13:14:25.068Z,60.32
2023-04-25T13:16:53.002Z,63.15
2023-04-25T13:19:21.215Z,69.58
2023-04-25T13:21:49.023Z,74.78
2023-04-25T13:24:16.848Z,74.98
2023-04-25T13:26:44.879Z,74.13
2023-04-25T13:29:12.701Z,74.18
2023-04-25T13:31:40.605Z,74.38
2023-04-25T13:34:08.699Z,74.56
2023-04-25T13:36:36.528Z,74.45
2023-04-25T13:39:05.803Z,73.27
2023-04-25T13:41:33.681Z,71.78
2023-04-25T13:44:01.855Z,71.02
2023-04-25T13:46:44.787Z,71.55
2023-04-25T13:49:14.712Z,70.37
2023-04-25T13:51:43.499Z,70.52
2023-04-25T13:54:20.825Z,70.00
2023-04-25T13:56:50.382Z,69.48
2023-04-25T13:59:20.369Z,68.89
2023-04-25T14:01:48.201Z,69.56
2023-04-25T14:04:16.263Z,69.92
2023-04-25T14:06:47.581Z,69.01
2023-04-25T14:09:16.113Z,69.44
2023-04-25T14:11:43.872Z,69.12
2023-04-25T14:14:11.700Z,69.77
2023-04-25T14:16:39.620Z,70.50
2023-04-25T14:19:07.498Z,70.85
2023-04-25T14:21:36.051Z,71.91
2023-04-25T14:24:04.067Z,73.26
2023-04-25T14:26:32.234Z,75.77
2023-04-25T14:29:00.121Z,77.72
2023-04-25T14:31:29.368Z,74.48
2023-04-25T14:33:59.320Z,70.79
2023-04-25T14:36:33.048Z,71.53
2023-04-25T14:39:06.318Z,72.52
2023-04-25T14:41:34.292Z,72.91
2023-04-25T14:44:04.342Z,73.77
2023-04-25T14:46:32.432Z,71.61
2023-04-25T14:49:00.915Z,70.88
2023-04-25T14:51:30.305Z,70.22
2023-04-25T14:53:59.274Z,69.17
2023-04-25T14:56:27.512Z,68.37
2023-04-25T14:58:55.350Z,68.79
2023-04-25T15:01:23.767Z,67.66
2023-04-25T15:03:52.446Z,66.34
2023-04-25T15:06:22.696Z,65.99
2023-04-25T15:08:50.625Z,65.60
2023-04-25T15:11:21.467Z,65.25
2023-04-25T15:13:49.605Z,63.70
2023-04-25T15:16:17.548Z,62.94
2023-04-25T15:18:45.364Z,63.51
2023-04-25T15:21:13.299Z,62.21
2023-04-25T15:23:41.303Z,61.11
2023-04-25T15:26:09.219Z,60.99
2023-04-25T15:28:37.336Z,61.11
2023-04-25T15:31:05.338Z,61.27
2023-04-25T15:33:33.282Z,61.92
2023-04-25T15:36:01.100Z,63.11
2023-04-25T15:38:28.946Z,62.98
2023-04-25T15:40:56.905Z,63.22
2023-04-25T15:43:24.942Z,63.99
2023-04-25T15:45:53.136Z,64.26
2023-04-25T15:48:21.282Z,64.42
2023-04-25T15:50:49.257Z,64.14
2023-04-25T15:53:17.060Z,62.79
2023-04-25T15:55:45.061Z,62.19
2023-04-25T15:58:12.921Z,61.63
2023-04-25T16:00:41.492Z,61.83
2023-04-25T16:03:09.950Z,61.45
2023-04-25T16:05:38.004Z,59.46
2023-04-25T16:08:06.011Z,59.37
2023-04-25T16:10:33.834Z,59.36
2023-04-25T16:13:01.720Z,59.91
2023-04-25T16:15:29.526Z,60.03
2023-04-25T16:17:58.719Z,60.78
2023-04-25T16:20:27.282Z,61.42
2023-04-25T16:22:55.450Z,62.19
2023-04-25T16:25:23.482Z,62.13
2023-04-25T16:27:51.904Z,61.82
2023-04-25T16:30:20.490Z,61.07
2023-04-25T16:32:50.803Z,61.03
2023-04-25T16:35:18.838Z,59.76
2023-04-25T16:37:46.848Z,60.01
2023-04-25T16:40:14.734Z,58.59
2023-04-25T16:42:42.544Z,58.55
2023-04-25T16:45:11.062Z,58.67
2023-04-25T16:47:38.935Z,58.21
2023-04-25T16:50:07.672Z,58.18
2023-04-25T16:52:35.454Z,58.42
2023-04-25T16:55:03.618Z,57.57
2023-04-25T16:57:31.374Z,57.44
2023-04-25T16:59:59.215Z,57.78
2023-04-25T17:02:29.506Z,57.21
2023-04-25T17:04:57.757Z,57.16
2023-04-25T17:07:25.867Z,57.27
2023-04-25T17:09:53.746Z,57.47
2023-04-25T17:12:21.736Z,57.73
2023-04-25T17:14:50.157Z,57.97
2023-04-25T17:17:18.924Z,58.02
2023-04-25T17:19:47.069Z,57.24
2023-04-25T17:22:15.191Z,57.36
2023-04-25T17:24:43.179Z,57.83
2023-04-25T17:27:11.614Z,57.14
2023-04-25T17:29:39.492Z,57.02
2023-04-25T17:32:07.472Z,57.69
2023-04-25T17:34:37.487Z,58.06
2023-04-25T17:37:06.078Z,57.79
2023-04-25T17:39:33.983Z,58.88
2023-04-25T17:42:02.307Z,58.64
2023-04-25T17:44:30.328Z,58.90
2023-04-25T17:46:58.801Z,59.46
2023-04-25T17:49:26.806Z,59.61
2023-04-25T17:51:54.728Z,59.89
2023-04-25T17:54:22.701Z,60.16
2023-04-25T17:56:51.019Z,60.84
2023-04-25T17:59:19.278Z,61.00
2023-04-25T18:01:48.290Z,61.46
2023-04-25T18:04:17.439Z,61.70
2023-04-25T18:06:45.271Z,61.68
2023-04-25T18:09:16.067Z,62.00
2023-04-25T18:11:47.669Z,62.52
2023-04-25T18:14:16.989Z,62.50
2023-04-25T18:16:45.083Z,62.85
2023-04-25T18:19:16.464Z,63.28
2023-04-25T18:21:45.850Z,63.33
2023-04-25T18:24:13.916Z,63.37
2023-04-25T18:26:42.095Z,63.24
2023-04-25T18:29:29.023Z,62.93
2023-04-25T18:32:01.382Z,63.30
2023-04-25T18:34:30.478Z,63.49
2023-04-25T18:36:58.381Z,63.42
2023-04-25T18:39:27.249Z,63.22
2023-04-25T18:42:04.075Z,63.15
2023-04-25T18:44:39.478Z,62.90
2023-04-25T18:47:08.363Z,63.28
2023-04-25T18:49:37.418Z,62.85
2023-04-25T18:52:10.412Z,62.69
2023-04-25T18:54:38.926Z,62.57
2023-04-25T18:57:06.832Z,62.40
2023-04-25T18:59:34.818Z,62.50
2023-04-25T19:02:04.335Z,62.46
2023-04-25T19:04:32.722Z,62.26
2023-04-25T19:07:01.236Z,63.04
2023-04-25T19:09:29.081Z,62.43
2023-04-25T19:11:57.452Z,62.66
2023-04-25T19:14:26.186Z,62.83
2023-04-25T19:16:54.086Z,62.70
2023-04-25T19:19:22.054Z,62.84
2023-04-25T19:21:50.669Z,62.58
2023-04-25T19:24:18.599Z,62.67
2023-04-25T19:26:46.490Z,62.43
2023-04-25T19:29:18.024Z,62.84
2023-04-25T19:31:45.997Z,62.48
2023-04-25T19:34:14.010Z,62.29
2023-04-25T19:36:42.589Z,61.72
2023-04-25T19:39:10.881Z,61.85
2023-04-25T19:41:41.998Z,61.47
2023-04-25T19:44:09.956Z,61.50
2023-04-25T19:46:38.311Z,61.32
2023-04-25T19:49:07.512Z,61.47
2023-04-25T19:51:37.570Z,61.24
2023-04-25T19:54:05.967Z,60.82
2023-04-25T19:56:34.173Z,60.57
2023-04-25T19:59:02.317Z,60.42
2023-04-25T20:01:30.605Z,60.79
2023-04-25T20:03:58.736Z,60.14
2023-04-25T20:06:27.193Z,59.52
2023-04-25T20:08:55.891Z,59.62
2023-04-25T20:11:24.065Z,59.74
2023-04-25T20:13:52.165Z,59.41
2023-04-25T20:16:21.730Z,59.61
2023-04-25T20:18:50.153Z,59.59
2023-04-25T20:21:19.672Z,59.54
2023-04-25T20:23:47.531Z,59.40
2023-04-25T20:26:15.711Z,59.57
2023-04-25T20:28:43.654Z,60.05
2023-04-25T20:31:11.865Z,59.97
2023-04-25T20:33:41.666Z,59.94
2023-04-25T20:36:09.877Z,60.03
2023-04-25T20:38:37.784Z,60.22
2023-04-25T20:41:05.674Z,61.16
2023-04-25T20:43:33.556Z,61.24
2023-04-25T20:46:01.542Z,61.10
2023-04-25T20:48:29.534Z,61.54
2023-04-25T20:50:58.475Z,61.41
2023-04-25T20:53:26.358Z,61.27
2023-04-25T20:55:54.207Z,61.47
2023-04-25T20:58:21.989Z,61.49
2023-04-25T21:00:50.721Z,61.73
2023-04-25T21:03:18.818Z,61.78
2023-04-25T21:05:46.954Z,61.97
2023-04-25T21:08:17.393Z,62.19
2023-04-25T21:10:45.300Z,62.25
2023-04-25T21:13:13.255Z,62.49
2023-04-25T21:15:41.145Z,62.78
2023-04-25T21:18:09.094Z,62.73
2023-04-25T21:20:37.086Z,63.00
2023-04-25T21:23:04.885Z,63.75
2023-04-25T21:25:32.761Z,63.41
2023-04-25T21:28:02.239Z,63.51
2023-04-25T21:30:30.821Z,63.70
2023-04-25T21:32:58.814Z,64.18
2023-04-25T21:35:26.659Z,64.31
2023-04-25T21:37:54.636Z,64.38
2023-04-25T21:40:22.574Z,64.54
2023-04-25T21:42:53.151Z,64.69
2023-04-25T21:45:21.218Z,64.96
2023-04-25T21:47:50.815Z,65.14
2023-04-25T21:50:19.592Z,65.25
2023-04-25T21:52:48.340Z,65.33
2023-04-25T21:55:17.295Z,65.56
2023-04-25T21:57:45.245Z,65.85
2023-04-25T22:00:24.856Z,65.93
2023-04-25T22:02:55.742Z,66.01
2023-04-25T22:05:26.460Z,66.06
2023-04-25T22:07:58.716Z,66.35
2023-04-25T22:10:26.597Z,66.74
2023-04-25T22:12:54.455Z,66.77
2023-04-25T22:15:24.005Z,67.31
2023-04-25T22:17:55.049Z,67.72
2023-04-25T22:20:25.965Z,67.86
2023-04-25T22:22:55.787Z,67.92
2023-04-25T22:25:23.829Z,68.69
2023-04-25T22:27:51.810Z,68.52
2023-04-25T22:30:19.719Z,68.65
2023-04-25T22:32:47.697Z,68.74
2023-04-25T22:35:15.661Z,68.82
2023-04-25T22:37:43.532Z,69.04
2023-04-25T22:40:12.395Z,69.53
2023-04-25T22:42:42.093Z,69.53
2023-04-25T22:45:11.362Z,69.83
2023-04-25T22:47:39.907Z,69.60
2023-04-25T22:50:13.915Z,69.69
2023-04-25T22:52:42.825Z,69.24
2023-04-25T22:55:12.085Z,69.45
2023-04-25T22:57:41.301Z,69.70
2023-04-25T23:00:19.664Z,69.85
2023-04-25T23:02:48.713Z,69.84
2023-04-25T23:05:16.807Z,69.85
2023-04-25T23:07:45.140Z,69.80
2023-04-25T23:10:14.125Z,69.95
2023-04-25T23:12:42.317Z,70.18
2023-04-25T23:15:12.560Z,69.86
2023-04-25T23:17:40.719Z,69.98
2023-04-25T23:20:11.052Z,69.92
2023-04-25T23:22:38.971Z,70.13
2023-04-25T23:25:08.216Z,70.07
2023-04-25T23:27:36.991Z,69.72
2023-04-25T23:30:06.409Z,69.83
2023-04-25T23:32:34.465Z,69.57
2023-04-25T23:35:04.906Z,69.38
2023-04-25T23:37:34.426Z,69.21
2023-04-25T23:40:08.452Z,69.85
2023-04-25T23:42:37.657Z,69.75
2023-04-25T23:45:07.874Z,69.98
2023-04-25T23:47:36.342Z,70.09
2023-04-25T23:50:06.008Z,70.26
2023-04-25T23:52:33.858Z,70.27
2023-04-25T23:55:02.007Z,70.70
2023-04-25T23:57:29.901Z,70.61
2023-04-25T23:59:58.188Z,71.25
